createdAt,value
2022-08-11T00:02:01.355Z,1.23
2022-08-11T00:04:37.250Z,1.38
2022-08-11T00:07:06.883Z,1.30
2022-08-11T00:09:38.914Z,1.00
2022-08-11T00:12:15.254Z,1.33
2022-08-11T00:14:44.171Z,1.15
2022-08-11T00:17:17.552Z,1.30
2022-08-11T00:20:15.152Z,1.00
2022-08-11T00:22:35.326Z,1.10
2022-08-11T00:25:14.348Z,1.42
2022-08-11T00:27:42.522Z,1.40
2022-08-11T00:30:12.177Z,1.23
2022-08-11T00:32:53.712Z,1.75
2022-08-11T00:35:54.344Z,1.20
2022-08-11T00:38:14.438Z,1.35
2022-08-11T00:41:22.895Z,1.20
2022-08-11T00:44:23.656Z,1.33
2022-08-11T00:47:17.509Z,1.30
2022-08-11T00:50:23.997Z,1.50
2022-08-11T00:53:35.273Z,1.30
2022-08-11T00:56:26.984Z,1.25
2022-08-11T00:59:05.858Z,1.45
2022-08-11T01:02:17.227Z,1.65
2022-08-11T01:05:05.341Z,1.42
2022-08-11T01:08:12.492Z,1.20
2022-08-11T01:11:17.861Z,1.50
2022-08-11T01:14:10.819Z,1.27
2022-08-11T01:16:52.919Z,1.63
2022-08-11T01:20:47.357Z,1.38
2022-08-11T01:23:03.826Z,1.10
2022-08-11T01:26:47.875Z,1.10
2022-08-11T01:30:03.731Z,1.10
2022-08-11T01:33:01.409Z,1.30
2022-08-11T01:35:56.945Z,1.10
2022-08-11T01:39:06.967Z,1.10
2022-08-11T01:42:44.729Z,1.20
2022-08-11T01:45:31.300Z,1.10
2022-08-11T01:48:24.806Z,1.20
2022-08-11T01:51:41.969Z,0.93
2022-08-11T01:54:55.266Z,1.27
2022-08-11T01:57:44.174Z,1.30
2022-08-11T02:00:19.999Z,1.20
2022-08-11T02:03:06.936Z,1.27
2022-08-11T02:05:47.413Z,1.20
2022-08-11T02:08:33.296Z,1.35
2022-08-11T02:11:31.492Z,1.25
2022-08-11T02:14:37.279Z,1.45
2022-08-11T02:17:21.482Z,1.45
2022-08-11T02:20:43.251Z,1.35
2022-08-11T02:24:04.764Z,1.20
2022-08-11T02:26:39.691Z,1.98
2022-08-11T02:29:32.476Z,1.35
2022-08-11T02:32:36.977Z,1.52
2022-08-11T02:35:41.371Z,1.33
2022-08-11T02:38:43.231Z,1.30
2022-08-11T02:41:58.526Z,1.10
2022-08-11T02:45:01.356Z,1.45
2022-08-11T02:48:10.247Z,1.27
2022-08-11T02:51:03.561Z,1.10
2022-08-11T02:54:07.834Z,1.20
2022-08-11T02:56:56.361Z,1.10
2022-08-11T02:59:54.289Z,1.20
2022-08-11T03:02:31.902Z,1.27
2022-08-11T03:04:58.839Z,1.10
2022-08-11T03:07:45.158Z,1.50
2022-08-11T03:10:23.883Z,1.42
2022-08-11T03:13:48.534Z,1.25
2022-08-11T03:16:56.835Z,1.58
2022-08-11T03:20:15.541Z,1.45
2022-08-11T03:23:19.800Z,1.38
2022-08-11T03:26:08.915Z,1.50
2022-08-11T03:29:10.748Z,1.40
2022-08-11T03:31:55.991Z,1.60
2022-08-11T03:34:26.672Z,1.42
2022-08-11T03:37:54.639Z,1.05
2022-08-11T03:41:49.313Z,1.52
2022-08-11T03:44:38.316Z,1.35
2022-08-11T03:48:02.758Z,1.50
2022-08-11T03:50:58.535Z,1.50
2022-08-11T03:53:58.051Z,1.88
2022-08-11T03:57:00.596Z,1.40
2022-08-11T03:59:51.774Z,1.90
2022-08-11T04:02:42.857Z,1.65
2022-08-11T04:05:49.084Z,1.63
2022-08-11T04:08:54.221Z,1.60
2022-08-11T04:11:55.731Z,1.80
2022-08-11T04:15:01.705Z,1.70
2022-08-11T04:17:46.692Z,1.80
2022-08-11T04:20:57.749Z,1.58
2022-08-11T04:24:36.729Z,1.85
2022-08-11T04:27:37.440Z,2.55
2022-08-11T04:30:50.635Z,1.55
2022-08-11T04:33:47.952Z,1.40
2022-08-11T04:37:06.392Z,2.20
2022-08-11T04:40:03.355Z,1.50
2022-08-11T04:43:07.682Z,1.70
2022-08-11T04:46:06.507Z,1.73
2022-08-11T04:49:37.318Z,1.80
2022-08-11T04:53:06.515Z,1.80
2022-08-11T04:56:30.981Z,1.73
2022-08-11T04:59:25.422Z,1.60
2022-08-11T05:02:19.247Z,1.70
2022-08-11T05:05:32.016Z,1.60
2022-08-11T05:08:36.435Z,1.60
2022-08-11T05:11:44.970Z,1.50
2022-08-11T05:14:30.220Z,1.90
2022-08-11T05:17:29.843Z,1.50
2022-08-11T05:20:15.204Z,1.80
2022-08-11T05:23:09.849Z,2.05
2022-08-11T05:26:42.636Z,2.03
2022-08-11T05:29:19.737Z,2.88
2022-08-11T05:32:17.922Z,2.00
2022-08-11T05:34:55.156Z,1.60
2022-08-11T05:37:33.246Z,1.70
2022-08-11T05:40:30.823Z,1.95
2022-08-11T05:43:21.940Z,1.38
2022-08-11T05:46:20.213Z,1.50
2022-08-11T05:49:06.970Z,1.83
2022-08-11T05:52:05.485Z,1.60
2022-08-11T05:55:06.407Z,1.85
2022-08-11T05:57:50.912Z,1.70
2022-08-11T06:00:20.075Z,1.73
2022-08-11T06:02:55.738Z,1.73
2022-08-11T06:05:25.186Z,1.73
2022-08-11T06:07:57.276Z,1.50
2022-08-11T06:10:35.710Z,1.58
2022-08-11T06:13:06.121Z,1.73
2022-08-11T06:15:44.123Z,1.48
2022-08-11T06:18:13.010Z,1.40
2022-08-11T06:20:51.113Z,1.60
2022-08-11T06:23:23.968Z,1.30
2022-08-11T06:25:53.232Z,1.55
2022-08-11T06:31:00.262Z,1.30
2022-08-11T06:33:36.669Z,1.92
2022-08-11T06:36:17.197Z,1.60
2022-08-11T06:39:23.773Z,1.30
2022-08-11T06:42:37.177Z,1.38
2022-08-11T06:45:31.100Z,1.73
2022-08-11T06:48:01.258Z,1.67
2022-08-11T06:50:49.195Z,1.40
2022-08-11T06:53:19.736Z,1.63
2022-08-11T06:56:07.726Z,1.42
2022-08-11T06:58:57.864Z,1.50
2022-08-11T07:01:49.305Z,1.42
2022-08-11T07:04:50.200Z,1.33
2022-08-11T07:07:44.696Z,1.63
2022-08-11T07:10:57.856Z,1.55
2022-08-11T07:13:46.000Z,1.67
2022-08-11T07:16:24.331Z,1.90
2022-08-11T07:19:33.965Z,1.60
2022-08-11T07:22:23.883Z,1.33
2022-08-11T07:25:27.643Z,1.48
2022-08-11T07:28:23.023Z,1.40
2022-08-11T07:31:00.598Z,1.60
2022-08-11T07:34:07.092Z,1.63
2022-08-11T07:36:31.713Z,1.40
2022-08-11T07:38:59.962Z,1.95
2022-08-11T07:41:32.782Z,1.60
2022-08-11T07:44:09.430Z,1.42
2022-08-11T07:47:01.533Z,1.75
2022-08-11T07:49:54.459Z,1.20
2022-08-11T07:52:32.619Z,1.60
2022-08-11T07:55:16.922Z,1.45
2022-08-11T07:58:15.017Z,1.40
2022-08-11T08:04:11.209Z,1.40
2022-08-11T08:06:58.100Z,1.40
2022-08-11T08:09:44.066Z,1.75
2022-08-11T08:12:31.606Z,1.30
2022-08-11T08:15:17.721Z,1.45
2022-08-11T08:18:09.106Z,1.23
2022-08-11T08:20:50.525Z,1.60
2022-08-11T08:23:35.497Z,1.42
2022-08-11T08:26:26.831Z,1.30
2022-08-11T08:29:16.318Z,1.55
2022-08-11T08:31:45.431Z,1.50
2022-08-11T08:34:15.087Z,1.40
2022-08-11T08:36:52.601Z,1.25
2022-08-11T08:39:21.831Z,1.60
2022-08-11T08:41:59.503Z,1.30
2022-08-11T08:44:45.001Z,1.38
2022-08-11T08:47:42.106Z,1.00
2022-08-11T08:50:16.864Z,1.13
2022-08-11T08:52:52.747Z,1.00
2022-08-11T08:55:21.217Z,1.00
2022-08-11T08:57:52.803Z,1.45
2022-08-11T09:02:52.544Z,1.17
2022-08-11T09:05:21.188Z,1.15
2022-08-11T09:07:53.826Z,1.00
2022-08-11T09:10:23.848Z,1.00
2022-08-11T09:12:51.885Z,1.10
2022-08-11T09:15:20.154Z,1.27
2022-08-11T09:18:06.066Z,1.10
2022-08-11T09:20:37.217Z,1.05
2022-08-11T09:26:32.533Z,1.02
2022-08-11T09:29:01.796Z,1.27
2022-08-11T09:31:39.796Z,1.10
2022-08-11T09:34:10.234Z,1.00
2022-08-11T09:36:58.618Z,0.80
2022-08-11T09:39:46.167Z,0.90
2022-08-11T09:42:16.565Z,1.30
2022-08-11T09:44:50.491Z,1.30
2022-08-11T09:47:22.596Z,1.15
2022-08-11T09:49:52.699Z,1.05
2022-08-11T09:52:21.035Z,0.77
2022-08-11T09:54:50.179Z,0.77
2022-08-11T09:57:41.306Z,1.00
2022-08-11T10:00:13.164Z,0.70
2022-08-11T10:02:48.783Z,0.90
2022-08-11T10:05:37.972Z,0.77
2022-08-11T10:08:07.830Z,0.90
2022-08-11T10:10:38.459Z,0.77
2022-08-11T10:14:12.466Z,0.82
2022-08-11T10:16:15.788Z,0.90
2022-08-11T10:18:53.220Z,1.15
2022-08-11T10:21:39.359Z,0.80
2022-08-11T10:28:17.729Z,0.93
2022-08-11T10:31:06.832Z,0.95
2022-08-11T10:33:59.929Z,1.00
2022-08-11T10:36:32.579Z,0.90
2022-08-11T10:39:03.035Z,1.00
2022-08-11T10:42:06.780Z,0.83
2022-08-11T10:44:42.347Z,1.10
2022-08-11T10:47:31.427Z,0.98
2022-08-11T10:50:17.925Z,0.95
2022-08-11T10:53:07.976Z,0.93
2022-08-11T10:55:58.577Z,0.80
2022-08-11T10:58:44.862Z,1.08
2022-08-11T11:01:12.650Z,1.15
2022-08-11T11:03:40.966Z,0.93
2022-08-11T11:06:31.317Z,0.70
2022-08-11T11:09:11.610Z,0.97
2022-08-11T11:12:03.692Z,0.83
2022-08-11T11:14:58.341Z,1.15
2022-08-11T11:17:52.269Z,1.10
2022-08-11T11:20:36.277Z,1.13
2022-08-11T11:23:50.169Z,1.10
2022-08-11T11:26:46.974Z,1.30
2022-08-11T11:29:53.344Z,1.20
2022-08-11T11:32:35.822Z,1.30
2022-08-11T11:36:15.248Z,1.10
2022-08-11T11:38:42.834Z,1.00
2022-08-11T11:41:25.037Z,1.10
2022-08-11T11:43:57.399Z,0.93
2022-08-11T11:46:30.566Z,1.00
2022-08-11T11:48:59.061Z,1.00
2022-08-11T11:51:27.703Z,1.08
2022-08-11T11:53:55.734Z,0.80
2022-08-11T11:56:25.196Z,1.00
2022-08-11T11:59:12.430Z,1.00
2022-08-11T12:01:43.794Z,0.90
2022-08-11T12:04:18.342Z,0.70
2022-08-11T12:06:47.060Z,0.88
2022-08-11T12:09:23.269Z,0.90
2022-08-11T12:12:10.162Z,0.90
2022-08-11T12:14:37.873Z,1.00
2022-08-11T12:17:05.144Z,1.85
2022-08-11T12:19:35.739Z,0.70
2022-08-11T12:22:21.987Z,1.00
2022-08-11T12:25:07.804Z,0.93
2022-08-11T12:27:38.912Z,1.02
2022-08-11T12:30:09.432Z,0.80
2022-08-11T12:32:39.253Z,1.00
2022-08-11T12:35:08.474Z,1.13
2022-08-11T12:37:45.548Z,0.90
2022-08-11T12:40:49.385Z,0.90
2022-08-11T12:43:43.120Z,1.00
2022-08-11T12:46:22.331Z,0.90
2022-08-11T12:49:15.087Z,1.17
2022-08-11T12:52:11.048Z,0.80
2022-08-11T12:55:03.019Z,0.80
2022-08-11T12:57:55.058Z,0.80
2022-08-11T13:00:41.325Z,0.90
2022-08-11T13:03:30.079Z,0.90
2022-08-11T13:06:02.652Z,0.80
2022-08-11T13:08:35.948Z,0.80
2022-08-11T13:11:22.398Z,0.77
2022-08-11T13:13:57.078Z,1.10
2022-08-11T13:16:57.175Z,0.90
2022-08-11T13:19:25.150Z,0.88
2022-08-11T13:21:53.567Z,0.70
2022-08-11T13:24:21.945Z,0.80
2022-08-11T13:26:50.543Z,0.90
2022-08-11T13:29:24.323Z,1.00
2022-08-11T13:31:56.167Z,0.80
2022-08-11T13:34:26.920Z,0.85
2022-08-11T13:36:57.533Z,0.85
2022-08-11T13:39:32.456Z,0.80
2022-08-11T13:42:01.896Z,0.80
2022-08-11T13:44:32.322Z,0.90
2022-08-11T13:47:04.334Z,0.80
2022-08-11T13:49:36.012Z,0.60
2022-08-11T13:52:12.863Z,0.68
2022-08-11T13:54:41.692Z,0.90
2022-08-11T13:57:13.622Z,1.02
2022-08-11T14:00:12.234Z,0.95
2022-08-11T14:02:52.378Z,0.85
2022-08-11T14:05:27.715Z,0.80
2022-08-11T14:08:09.654Z,0.80
2022-08-11T14:12:20.146Z,0.98
2022-08-11T14:14:10.742Z,1.20
2022-08-11T14:16:43.003Z,0.80
2022-08-11T14:19:13.784Z,0.90
2022-08-11T14:22:07.314Z,0.90
2022-08-11T14:24:49.449Z,0.90
2022-08-11T14:28:32.255Z,0.90
2022-08-11T14:30:26.076Z,0.80
2022-08-11T14:32:55.469Z,0.90
2022-08-11T14:35:25.511Z,0.80
2022-08-11T14:37:56.472Z,0.90
2022-08-11T14:40:42.599Z,0.80
2022-08-11T14:44:12.918Z,0.70
2022-08-11T14:46:33.846Z,0.70
2022-08-11T14:49:01.250Z,0.80
2022-08-11T14:51:28.719Z,0.60
2022-08-11T14:54:16.189Z,0.75
2022-08-11T14:56:44.715Z,0.60
2022-08-11T14:59:13.584Z,0.85
2022-08-11T15:01:59.283Z,0.65
2022-08-11T15:04:36.491Z,0.90
2022-08-11T15:07:04.572Z,0.80
2022-08-11T15:10:10.171Z,0.95
2022-08-11T15:15:24.990Z,0.80
2022-08-11T15:17:58.514Z,0.90
2022-08-11T15:20:47.037Z,0.80
2022-08-11T15:23:33.375Z,0.80
2022-08-11T15:26:12.229Z,0.85
2022-08-11T15:29:08.995Z,0.90
2022-08-11T15:31:44.286Z,0.90
2022-08-11T15:34:39.591Z,0.70
2022-08-11T15:37:30.955Z,0.88
2022-08-11T15:40:46.558Z,0.80
2022-08-11T15:43:40.391Z,0.90
2022-08-11T15:46:32.131Z,0.90
2022-08-11T15:49:05.245Z,1.00
2022-08-11T15:51:41.536Z,1.00
2022-08-11T15:54:20.334Z,0.80
2022-08-11T15:56:52.605Z,0.85
2022-08-11T15:59:42.739Z,0.80
2022-08-11T16:02:16.285Z,0.80
2022-08-11T16:04:45.906Z,0.80
2022-08-11T16:07:17.470Z,0.90
2022-08-11T16:10:00.791Z,0.80
2022-08-11T16:12:36.188Z,0.90
2022-08-11T16:15:26.525Z,0.98
2022-08-11T16:20:29.474Z,0.80
2022-08-11T16:23:05.499Z,0.88
2022-08-11T16:26:38.063Z,0.80
2022-08-11T16:28:25.213Z,0.80
2022-08-11T16:30:53.433Z,0.80
2022-08-11T16:33:50.520Z,0.80
2022-08-11T16:36:32.932Z,0.68
2022-08-11T16:39:00.814Z,0.70
2022-08-11T16:41:50.083Z,0.85
2022-08-11T16:44:38.591Z,0.90
2022-08-11T16:48:01.941Z,0.80
2022-08-11T16:50:08.055Z,0.90
2022-08-11T16:52:34.944Z,0.80
2022-08-11T16:55:03.849Z,0.93
2022-08-11T16:57:52.877Z,0.90
2022-08-11T17:00:19.793Z,0.90
2022-08-11T17:03:10.712Z,0.82
2022-08-11T17:06:04.774Z,0.75
2022-08-11T17:09:06.317Z,0.90
2022-08-11T17:12:01.158Z,0.90
2022-08-11T17:14:54.219Z,0.90
2022-08-11T17:17:33.483Z,0.60
2022-08-11T17:20:41.397Z,0.80
2022-08-11T17:23:17.193Z,1.00
2022-08-11T17:26:03.408Z,0.77
2022-08-11T17:28:33.217Z,1.00
2022-08-11T17:31:21.894Z,0.88
2022-08-11T17:34:09.793Z,0.75
2022-08-11T17:36:40.441Z,0.85
2022-08-11T17:39:13.475Z,0.90
2022-08-11T17:42:00.385Z,0.98
2022-08-11T17:44:46.505Z,0.80
2022-08-11T17:47:33.240Z,0.90
2022-08-11T17:50:14.615Z,0.90
2022-08-11T17:53:05.692Z,0.93
2022-08-11T17:55:54.069Z,0.80
2022-08-11T17:58:41.547Z,0.90
2022-08-11T18:01:10.918Z,0.95
2022-08-11T18:03:40.871Z,0.95
2022-08-11T18:06:12.695Z,0.80
2022-08-11T18:09:03.687Z,0.98
2022-08-11T18:12:06.540Z,0.93
2022-08-11T18:14:58.149Z,0.70
2022-08-11T18:17:43.390Z,0.93
2022-08-11T18:20:29.297Z,0.88
2022-08-11T18:23:15.980Z,0.93
2022-08-11T18:26:07.726Z,0.90
2022-08-11T18:31:44.844Z,0.90
2022-08-11T18:34:35.392Z,0.90
2022-08-11T18:37:29.142Z,1.00
2022-08-11T18:40:27.976Z,1.00
2022-08-11T18:43:17.225Z,1.00
2022-08-11T18:46:07.871Z,1.15
2022-08-11T18:48:58.299Z,1.00
2022-08-11T18:51:45.343Z,0.85
2022-08-11T18:54:32.557Z,1.00
2022-08-11T18:57:22.572Z,1.20
2022-08-11T19:00:10.920Z,0.80
2022-08-11T19:02:58.797Z,0.80
2022-08-11T19:06:35.867Z,0.95
2022-08-11T19:09:00.329Z,1.10
2022-08-11T19:11:46.808Z,0.98
2022-08-11T19:14:34.197Z,1.00
2022-08-11T19:17:45.094Z,1.30
2022-08-11T19:20:40.525Z,1.00
2022-08-11T19:23:29.273Z,1.30
2022-08-11T19:26:17.088Z,1.00
2022-08-11T19:29:06.810Z,1.10
2022-08-11T19:31:53.588Z,1.05
2022-08-11T19:34:42.523Z,0.90
2022-08-11T19:37:29.523Z,1.30
2022-08-11T19:40:22.893Z,1.10
2022-08-11T19:43:14.926Z,1.30
2022-08-11T19:46:19.177Z,1.20
2022-08-11T19:49:14.625Z,1.30
2022-08-11T19:52:02.675Z,1.00
2022-08-11T19:54:53.087Z,0.93
2022-08-11T19:57:41.055Z,1.40
2022-08-11T20:00:36.301Z,1.20
2022-08-11T20:03:27.548Z,1.48
2022-08-11T20:06:16.554Z,1.30
2022-08-11T20:09:05.490Z,1.15
2022-08-11T20:11:58.564Z,1.38
2022-08-11T20:14:50.076Z,1.20
2022-08-11T20:17:37.076Z,1.50
2022-08-11T20:20:25.911Z,1.00
2022-08-11T20:23:14.624Z,1.00
2022-08-11T20:26:14.152Z,1.00
2022-08-11T20:29:08.898Z,1.27
2022-08-11T20:31:55.859Z,1.20
2022-08-11T20:34:42.611Z,1.50
2022-08-11T20:37:29.976Z,1.23
2022-08-11T20:40:16.750Z,1.20
2022-08-11T20:43:09.891Z,1.58
2022-08-11T20:46:15.958Z,1.10
2022-08-11T20:49:03.441Z,1.50
2022-08-11T20:51:52.959Z,1.05
2022-08-11T20:54:43.623Z,1.20
2022-08-11T20:57:58.887Z,0.85
2022-08-11T21:00:41.055Z,1.15
2022-08-11T21:03:35.905Z,1.10
2022-08-11T21:06:33.033Z,1.40
2022-08-11T21:09:25.039Z,1.90
2022-08-11T21:12:29.719Z,1.58
2022-08-11T21:15:16.183Z,1.85
2022-08-11T21:18:28.198Z,1.73
2022-08-11T21:21:16.785Z,2.60
2022-08-11T21:24:02.947Z,1.92
2022-08-11T21:26:51.654Z,1.48
2022-08-11T21:29:38.728Z,1.30
2022-08-11T21:32:25.055Z,1.65
2022-08-11T21:35:12.677Z,1.85
2022-08-11T21:37:58.442Z,1.40
2022-08-11T21:40:46.581Z,2.20
2022-08-11T21:43:33.984Z,1.92
2022-08-11T21:46:22.630Z,1.30
2022-08-11T21:49:09.754Z,1.45
2022-08-11T21:52:00.339Z,1.23
2022-08-11T21:54:47.332Z,1.42
2022-08-11T21:57:34.884Z,1.58
2022-08-11T22:00:34.041Z,1.73
2022-08-11T22:03:20.146Z,1.55
2022-08-11T22:06:06.771Z,1.50
2022-08-11T22:08:53.209Z,1.83
2022-08-11T22:11:39.308Z,1.45
2022-08-11T22:14:25.089Z,1.45
2022-08-11T22:17:11.098Z,1.20
2022-08-11T22:20:00.470Z,1.40
2022-08-11T22:22:52.201Z,1.20
2022-08-11T22:25:51.595Z,1.23
2022-08-11T22:28:40.047Z,1.50
2022-08-11T22:31:27.244Z,1.95
2022-08-11T22:34:13.367Z,1.50
2022-08-11T22:37:01.390Z,1.40
2022-08-11T22:39:58.328Z,1.30
2022-08-11T22:42:50.541Z,1.73
2022-08-11T22:45:37.545Z,1.20
2022-08-11T22:48:24.307Z,1.38
2022-08-11T22:51:10.899Z,1.10
2022-08-11T22:53:59.132Z,1.25
2022-08-11T22:56:50.101Z,1.50
2022-08-11T22:59:37.416Z,1.20
2022-08-11T23:02:25.572Z,1.30
2022-08-11T23:05:11.510Z,1.23
2022-08-11T23:07:57.942Z,1.20
2022-08-11T23:10:45.072Z,1.50
2022-08-11T23:13:31.786Z,1.30
2022-08-11T23:16:18.509Z,1.20
2022-08-11T23:19:04.554Z,1.20
2022-08-11T23:21:50.946Z,1.10
2022-08-11T23:24:38.576Z,1.20
2022-08-11T23:27:27.389Z,1.40
2022-08-11T23:30:18.936Z,1.33
2022-08-11T23:33:12.894Z,1.13
2022-08-11T23:36:05.529Z,1.33
2022-08-11T23:38:51.518Z,1.38
2022-08-11T23:41:37.817Z,1.52
2022-08-11T23:44:26.063Z,1.48
2022-08-11T23:47:17.367Z,1.42
2022-08-11T23:50:05.553Z,1.17
2022-08-11T23:52:53.504Z,1.27
2022-08-11T23:55:39.855Z,1.10
2022-08-11T23:58:26.120Z,1.80
